MET'MAP v2.0
soon released !

Expected late october,
this new version will be
more efficient, smarter,
and hosted on a brand new
server x3 powerfull...
...and still free !


Not compatible ?
Try the mobile version !

LOG IN : | Subscribe | Disclaimer | Who is Orbifly ? |
ICAO code :
Legend : VFR Marginal VFR IFR Intensive IFR Very Intensive IFR
Visi :
Ceiling :
>= 8 km
>= 3000ft
5 to 8 km
1000 to 3000 ft
1500m to 5 km
500 to 1000 ft
800 to 1500m
200 to 500 ft
< 800m
< 200 ft

METAR - GMFO Ouja Angads - 28 Nov 2020 14:48 UTC - Data Source NOAA   


- Airport Elevation : 1535 ft
- IATA code : OUD
- No reported NOTAMs.


GMFO - Ouja Angads

Latest METAR recorded : 2015/08/11 07:00 GMFO 110700Z 21005KT 9999 FEW026 FEW033TCU BKN100 29/17 Q1015 NOSIG
TAF TAF GMFO
Valid from the 28 at 12:00 until the 29 at 18:00 UTC


281100Z 2812/2918 24017G27KT 9999 SCT026 BKN050
PROB40
TEMPO 2818/2904 TSRA FEW033CB
BECMG 2909/2912 22016KT CAVOK

Source NOAA


MET'MAP, your aeronautical weather chart ! - Copyright ORBIFLY December 2007

Programming & Development : Alexandra Zaïnal
Co-Developer : Marc-Olivier Méhu
Technical & hardware support : Manuel Goepfert
Concept & Financing : Baudouin d'Aumeries